createdAt,value
2023-03-22T00:00:03.084Z,70.89
2023-03-22T00:03:06.713Z,70.89
2023-03-22T00:06:08.939Z,71.17
2023-03-22T00:09:11.008Z,72.86
2023-03-22T00:12:12.849Z,73.22
2023-03-22T00:15:15.609Z,72.28
2023-03-22T00:18:17.710Z,72.90
2023-03-22T00:21:20.309Z,72.62
2023-03-22T00:24:23.401Z,73.09
2023-03-22T00:27:27.050Z,73.39
2023-03-22T00:30:28.874Z,73.51
2023-03-22T00:33:31.545Z,72.84
2023-03-22T00:36:33.470Z,72.65
2023-03-22T00:39:35.494Z,73.25
2023-03-22T00:42:37.819Z,73.25
2023-03-22T00:45:41.143Z,73.57
2023-03-22T00:48:43.457Z,74.56
2023-03-22T00:51:45.324Z,75.14
2023-03-22T00:54:47.829Z,75.36
2023-03-22T00:57:49.989Z,75.05
2023-03-22T01:00:52.226Z,73.62
2023-03-22T01:03:54.531Z,73.74
2023-03-22T01:07:03.855Z,73.09
2023-03-22T01:10:06.413Z,74.08
2023-03-22T01:13:09.292Z,74.24
2023-03-22T01:16:11.369Z,74.11
2023-03-22T01:19:13.648Z,74.88
2023-03-22T01:22:15.761Z,74.08
2023-03-22T01:25:17.814Z,74.95
2023-03-22T01:28:19.811Z,75.68
2023-03-22T01:31:21.791Z,76.49
2023-03-22T01:34:23.797Z,76.00
2023-03-22T01:37:27.894Z,76.48
2023-03-22T01:40:29.910Z,76.30
2023-03-22T01:43:32.222Z,76.28
2023-03-22T01:46:34.862Z,75.97
2023-03-22T01:49:37.639Z,76.51
2023-03-22T01:52:40.807Z,75.42
2023-03-22T01:55:53.960Z,75.17
2023-03-22T01:59:01.873Z,74.44
2023-03-22T02:02:19.184Z,74.15
2023-03-22T02:05:28.704Z,74.92
2023-03-22T02:08:36.424Z,74.29
2023-03-22T02:11:49.756Z,74.98
2023-03-22T02:15:05.398Z,74.89
2023-03-22T02:18:39.448Z,75.02
2023-03-22T02:22:00.603Z,76.08
2023-03-22T02:25:21.838Z,76.00
2023-03-22T02:28:37.466Z,76.36
2023-03-22T02:31:45.408Z,76.52
2023-03-22T02:35:05.471Z,76.25
2023-03-22T02:38:16.743Z,76.56
2023-03-22T02:41:21.999Z,76.46
2023-03-22T02:44:24.106Z,75.90
2023-03-22T02:47:35.360Z,75.04
2023-03-22T02:50:54.744Z,75.09
2023-03-22T02:54:15.460Z,75.26
2023-03-22T02:57:25.091Z,75.15
2023-03-22T03:00:30.675Z,75.64
2023-03-22T03:03:33.573Z,74.56
2023-03-22T03:06:46.374Z,74.83
2023-03-22T03:09:49.270Z,74.75
2023-03-22T03:12:51.681Z,75.50
2023-03-22T03:15:57.330Z,75.81
2023-03-22T03:19:03.722Z,76.43
2023-03-22T03:22:13.406Z,76.46
2023-03-22T03:25:27.611Z,76.57
2023-03-22T03:28:38.356Z,76.43
2023-03-22T03:31:44.195Z,75.90
2023-03-22T03:34:49.801Z,76.35
2023-03-22T03:37:53.991Z,75.06
2023-03-22T03:40:59.170Z,74.19
2023-03-22T03:44:01.389Z,74.01
2023-03-22T03:47:04.132Z,74.35
2023-03-22T03:50:06.439Z,74.17
2023-03-22T03:53:08.533Z,74.81
2023-03-22T03:56:10.589Z,74.92
2023-03-22T03:59:18.060Z,75.11
2023-03-22T04:02:23.005Z,75.98
2023-03-22T04:05:27.285Z,75.78
2023-03-22T04:08:29.503Z,76.65
2023-03-22T04:11:31.863Z,77.08
2023-03-22T04:14:36.976Z,76.88
2023-03-22T04:17:46.743Z,76.81
2023-03-22T04:20:53.754Z,76.39
2023-03-22T04:23:57.721Z,76.69
2023-03-22T04:27:01.514Z,76.68
2023-03-22T04:30:11.257Z,76.26
2023-03-22T04:33:49.983Z,75.80
2023-03-22T04:37:05.004Z,75.72
2023-03-22T04:40:21.845Z,75.63
2023-03-22T04:43:44.825Z,75.55
2023-03-22T04:46:48.911Z,75.35
2023-03-22T04:49:51.119Z,75.31
2023-03-22T04:52:53.190Z,75.03
2023-03-22T04:55:57.283Z,75.13
2023-03-22T04:59:01.558Z,75.68
2023-03-22T05:02:03.755Z,75.62
2023-03-22T05:05:12.974Z,75.91
2023-03-22T05:08:16.002Z,75.93
2023-03-22T05:11:22.144Z,75.60
2023-03-22T05:14:37.447Z,75.73
2023-03-22T05:17:40.828Z,75.47
2023-03-22T05:20:43.537Z,75.26
2023-03-22T05:23:52.229Z,74.68
2023-03-22T05:26:55.127Z,78.54
2023-03-22T05:30:02.243Z,85.38
2023-03-22T05:33:22.081Z,91.55
2023-03-22T05:36:29.812Z,97.27
2023-03-22T05:39:57.793Z,100.00
2023-03-22T05:43:11.105Z,100.00
2023-03-22T05:46:17.550Z,100.00
2023-03-22T05:49:39.729Z,100.00
2023-03-22T05:52:43.062Z,100.00
2023-03-22T05:56:13.996Z,100.00
2023-03-22T05:59:17.902Z,100.00
2023-03-22T06:02:21.528Z,100.00
2023-03-22T06:05:23.853Z,100.00
2023-03-22T06:08:27.335Z,100.00
2023-03-22T06:11:30.660Z,100.00
2023-03-22T06:14:33.108Z,100.00
2023-03-22T06:18:01.126Z,100.00
2023-03-22T06:21:06.876Z,100.00
2023-03-22T06:24:09.084Z,100.00
2023-03-22T06:27:11.391Z,100.00
2023-03-22T06:30:15.526Z,94.58
2023-03-22T06:33:38.862Z,93.15
2023-03-22T06:36:53.663Z,93.01
2023-03-22T06:40:02.702Z,89.67
2023-03-22T06:43:07.205Z,85.51
2023-03-22T06:46:11.808Z,82.11
2023-03-22T06:49:21.978Z,82.74
2023-03-22T06:52:26.544Z,84.87
2023-03-22T06:55:28.798Z,85.73
2023-03-22T06:58:30.908Z,87.45
2023-03-22T07:01:33.322Z,86.66
2023-03-22T07:04:35.856Z,87.70
2023-03-22T07:07:38.029Z,88.03
2023-03-22T07:10:40.346Z,86.97
2023-03-22T07:13:42.738Z,86.10
2023-03-22T07:16:49.780Z,85.19
2023-03-22T07:19:53.590Z,84.96
2023-03-22T07:22:57.839Z,85.62
2023-03-22T07:26:03.127Z,85.83
2023-03-22T07:29:08.876Z,84.98
2023-03-22T07:32:11.522Z,85.59
2023-03-22T07:35:34.809Z,85.47
2023-03-22T07:38:37.820Z,85.21
2023-03-22T07:45:37.745Z,83.33
2023-03-22T07:49:02.822Z,83.33
2023-03-22T07:52:23.176Z,82.77
2023-03-22T07:55:25.453Z,82.70
2023-03-22T07:58:27.597Z,82.69
2023-03-22T08:01:32.103Z,82.36
2023-03-22T08:05:45.560Z,81.64
2023-03-22T08:08:49.712Z,81.54
2023-03-22T08:11:51.676Z,81.92
2023-03-22T08:14:54.349Z,81.09
2023-03-22T08:18:00.760Z,81.77
2023-03-22T08:21:10.930Z,80.00
2023-03-22T08:24:14.369Z,80.59
2023-03-22T08:27:46.060Z,79.71
2023-03-22T08:30:49.622Z,79.58
2023-03-22T08:33:51.774Z,78.94
2023-03-22T08:36:53.709Z,79.67
2023-03-22T08:39:55.873Z,78.15
2023-03-22T08:43:06.945Z,77.82
2023-03-22T08:46:10.375Z,77.49
2023-03-22T08:49:12.939Z,77.26
2023-03-22T08:52:24.059Z,76.53
2023-03-22T08:55:32.272Z,76.52
2023-03-22T08:58:46.894Z,76.28
2023-03-22T09:02:09.257Z,75.21
2023-03-22T09:05:13.691Z,76.74
2023-03-22T09:08:19.698Z,76.70
2023-03-22T09:11:30.607Z,77.67
2023-03-22T09:14:33.842Z,75.51
2023-03-22T09:17:36.560Z,74.42
2023-03-22T09:20:40.322Z,75.15
2023-03-22T09:23:47.987Z,75.74
2023-03-22T09:26:54.200Z,75.33
2023-03-22T09:29:56.432Z,76.05
2023-03-22T09:33:02.269Z,75.38
2023-03-22T09:36:06.011Z,74.60
2023-03-22T09:39:10.153Z,75.08
2023-03-22T09:42:21.327Z,74.62
2023-03-22T09:45:43.876Z,73.47
2023-03-22T09:48:48.400Z,72.85
2023-03-22T09:51:52.675Z,72.46
2023-03-22T09:54:54.905Z,72.26
2023-03-22T09:58:02.635Z,71.77
2023-03-22T10:01:24.852Z,71.81
2023-03-22T10:04:59.418Z,71.30
2023-03-22T10:08:01.560Z,71.52
2023-03-22T10:11:07.685Z,70.85
2023-03-22T10:14:24.743Z,71.36
2023-03-22T10:17:27.329Z,72.02
2023-03-22T10:20:37.120Z,71.44
2023-03-22T10:23:39.532Z,72.32
2023-03-22T10:26:42.602Z,74.01
2023-03-22T10:30:04.756Z,78.01
2023-03-22T10:33:21.467Z,81.96
2023-03-22T10:36:26.509Z,82.88
2023-03-22T10:39:38.467Z,84.75
2023-03-22T10:42:43.290Z,86.44
2023-03-22T10:45:45.517Z,87.74
2023-03-22T10:48:50.030Z,88.78
2023-03-22T10:51:54.829Z,87.42
2023-03-22T10:55:01.295Z,74.44
2023-03-22T10:58:12.790Z,71.67
2023-03-22T11:01:17.390Z,69.71
2023-03-22T11:04:19.408Z,67.22
2023-03-22T11:07:32.222Z,67.99
2023-03-22T11:10:34.308Z,65.88
2023-03-22T11:13:36.741Z,65.55
2023-03-22T11:16:53.018Z,65.00
2023-03-22T11:20:07.836Z,67.86
2023-03-22T11:23:17.904Z,80.69
2023-03-22T11:29:49.706Z,85.57
2023-03-22T11:33:02.320Z,86.01
2023-03-22T11:36:16.230Z,89.76
2023-03-22T11:39:19.024Z,86.99
2023-03-22T11:42:21.577Z,89.25
2023-03-22T11:45:35.491Z,78.47
2023-03-22T11:48:37.908Z,69.84
2023-03-22T11:51:41.069Z,67.68
2023-03-22T11:54:44.346Z,65.38
2023-03-22T11:57:46.801Z,66.26
2023-03-22T12:00:52.654Z,67.99
2023-03-22T12:03:56.703Z,63.36
2023-03-22T12:07:00.736Z,64.61
2023-03-22T12:10:28.876Z,62.19
2023-03-22T12:13:52.309Z,61.20
2023-03-22T12:17:01.587Z,62.46
2023-03-22T12:20:23.460Z,62.52
2023-03-22T12:23:29.325Z,61.35
2023-03-22T12:26:34.420Z,61.96
2023-03-22T12:29:36.755Z,61.23
2023-03-22T12:32:44.772Z,61.78
2023-03-22T12:35:47.572Z,61.10
2023-03-22T12:38:58.095Z,60.15
2023-03-22T12:42:03.137Z,60.02
2023-03-22T12:45:12.884Z,59.81
2023-03-22T12:48:21.576Z,59.23
2023-03-22T12:51:23.905Z,60.42
2023-03-22T12:54:26.518Z,59.63
2023-03-22T12:57:30.131Z,59.59
2023-03-22T13:00:38.500Z,58.22
2023-03-22T13:03:48.016Z,59.79
2023-03-22T13:06:53.717Z,58.03
2023-03-22T13:09:55.825Z,58.97
2023-03-22T13:13:17.862Z,59.12
2023-03-22T13:16:23.062Z,58.78
2023-03-22T13:19:38.718Z,58.78
2023-03-22T13:22:43.599Z,59.41
2023-03-22T13:26:00.246Z,58.88
2023-03-22T13:29:08.078Z,58.29
2023-03-22T13:32:30.741Z,58.80
2023-03-22T13:35:46.758Z,58.21
2023-03-22T13:38:54.744Z,58.33
2023-03-22T13:42:15.610Z,58.38
2023-03-22T13:45:34.265Z,57.84
2023-03-22T13:48:41.460Z,57.68
2023-03-22T13:51:44.249Z,58.88
2023-03-22T13:54:49.135Z,58.19
2023-03-22T13:57:59.249Z,57.47
2023-03-22T14:01:01.314Z,57.75
2023-03-22T14:04:12.490Z,58.19
2023-03-22T14:07:21.916Z,56.55
2023-03-22T14:10:28.353Z,57.46
2023-03-22T14:14:02.856Z,58.74
2023-03-22T14:17:37.188Z,61.47
2023-03-22T14:20:40.231Z,62.65
